Time;durP1;ratioP1;P1;durP2;ratioP2;P2;SDS_P1;SDS_P2;PMS_P1;PMS_P2;Temp;Humidity;BMP_temperature;BMP_pressure;BME280_temperature;BME280_humidity;BME280_pressure;Samples;Min_cycle;Max_cycle;Signal;HPM_P1;HPM_P2
2022/11/06 00:00:18;;;;;;;8.88;4.40;;;12.30;99.90;;;;;;5050496;28;20080;-69
2022/11/06 00:02:44;;;;;;;8.60;5.05;;;11.80;99.90;;;;;;5028791;28;20033;-69
2022/11/06 00:07:54;;;;;;;12.85;6.22;;;12.90;99.90;;;;;;5033703;28;20051;-69
2022/11/06 00:10:20;;;;;;;12.48;5.18;;;13.10;99.90;;;;;;5050017;28;20534;-69
2022/11/06 00:12:46;;;;;;;13.40;5.22;;;12.40;99.90;;;;;;5049236;28;20087;-69
2022/11/06 00:15:12;;;;;;;14.50;6.40;;;13.10;99.90;;;;;;5050303;28;20041;-69
2022/11/06 00:17:38;;;;;;;9.23;5.07;;;12.50;99.90;;;;;;5050528;28;20049;-69
2022/11/06 00:20:05;;;;;;;14.90;5.85;;;13.10;99.90;;;;;;5050377;28;20128;-69
2022/11/06 00:22:37;;;;;;;10.88;5.05;;;12.80;99.90;;;;;;5048577;28;20044;-69
2022/11/06 00:25:04;;;;;;;10.40;5.35;;;12.80;99.90;;;;;;5051906;28;20037;-69
2022/11/06 00:27:30;;;;;;;7.40;3.88;;;12.00;99.90;;;;;;5038348;28;20075;-69
2022/11/06 00:29:55;;;;;;;10.82;4.50;;;13.20;99.90;;;;;;5033908;28;20459;-70
2022/11/06 00:32:21;;;;;;;8.60;5.15;;;12.10;99.90;;;;;;5044693;28;20419;-69
2022/11/06 00:34:47;;;;;;;10.30;4.30;;;12.60;99.90;;;;;;5032581;28;20517;-70
2022/11/06 00:37:13;;;;;;;9.52;4.80;;;13.10;99.90;;;;;;5048041;28;20045;-69
2022/11/06 00:39:38;;;;;;;12.90;5.65;;;12.20;99.90;;;;;;5049490;28;20044;-70
2022/11/06 00:42:04;;;;;;;10.43;4.82;;;13.00;99.90;;;;;;5053599;28;20045;-69
2022/11/06 00:44:30;;;;;;;9.70;5.07;;;13.20;99.90;;;;;;5052710;28;20045;-70
2022/11/06 00:46:55;;;;;;;10.75;4.95;;;12.70;99.90;;;;;;5053242;28;20033;-69
2022/11/06 00:49:21;;;;;;;10.20;4.88;;;12.30;99.90;;;;;;5053473;28;20147;-69
2022/11/06 00:51:46;;;;;;;10.45;5.35;;;12.20;99.90;;;;;;5053373;28;20417;-69
2022/11/06 00:54:13;;;;;;;11.30;5.03;;;12.90;99.90;;;;;;5053855;28;20041;-69
2022/11/06 00:56:39;;;;;;;8.68;4.68;;;12.90;99.90;;;;;;5054023;28;20040;-69
2022/11/06 00:59:06;;;;;;;12.38;5.72;;;12.50;99.90;;;;;;5052729;28;20486;-69
2022/11/06 01:01:35;;;;;;;18.08;5.80;;;13.10;99.90;;;;;;5051633;28;20124;-69
2022/11/06 01:04:04;;;;;;;10.68;4.75;;;12.80;99.90;;;;;;5055101;28;20041;-69
2022/11/06 01:06:35;;;;;;;8.07;4.50;;;12.00;99.90;;;;;;5054046;28;20490;-70
2022/11/06 01:09:03;;;;;;;10.70;4.43;;;12.00;99.90;;;;;;5052568;28;20068;-69
2022/11/06 01:11:31;;;;;;;13.88;5.15;;;12.00;99.90;;;;;;5037031;28;20049;-69
2022/11/06 01:13:59;;;;;;;13.05;4.97;;;12.20;99.90;;;;;;5053915;28;20486;-69
2022/11/06 01:16:26;;;;;;;11.68;6.30;;;12.00;99.90;;;;;;5049726;28;20049;-69
2022/11/06 01:18:52;;;;;;;12.63;6.22;;;13.20;99.90;;;;;;5050296;28;20038;-69
2022/11/06 01:21:22;;;;;;;13.20;5.57;;;12.20;99.90;;;;;;5049454;28;20123;-69
2022/11/06 01:23:52;;;;;;;9.90;5.78;;;12.10;99.90;;;;;;5053305;28;20056;-69
2022/11/06 01:26:18;;;;;;;17.23;5.28;;;12.00;99.90;;;;;;5053204;28;20029;-70
2022/11/06 01:28:43;;;;;;;11.65;6.10;;;13.10;99.90;;;;;;5036916;28;20128;-69
2022/11/06 01:31:12;;;;;;;13.43;5.47;;;12.20;99.90;;;;;;5034865;28;20547;-69
2022/11/06 01:33:38;;;;;;;10.48;5.35;;;12.30;99.90;;;;;;5053181;28;20564;-69
2022/11/06 01:36:04;;;;;;;11.05;6.30;;;13.10;99.90;;;;;;5046583;28;20147;-69
2022/11/06 01:38:30;;;;;;;13.32;5.60;;;12.20;99.90;;;;;;5053258;28;20057;-69
2022/11/06 01:40:56;;;;;;;15.30;7.65;;;12.30;99.90;;;;;;5051084;28;20033;-69
2022/11/06 01:43:55;;;;;;;8.25;4.97;;;13.30;99.90;;;;;;5053102;28;20116;-69
2022/11/06 01:46:23;;;;;;;11.10;5.85;;;13.30;99.90;;;;;;5049817;28;20502;-69
2022/11/06 01:48:57;;;;;;;15.50;6.43;;;12.10;99.90;;;;;;5049296;28;20126;-69
2022/11/06 01:51:25;;;;;;;13.00;6.15;;;13.30;99.90;;;;;;5037840;28;20048;-69
2022/11/06 01:53:52;;;;;;;15.02;6.15;;;13.40;99.90;;;;;;5032465;28;20033;-69
2022/11/06 01:56:20;;;;;;;13.25;5.63;;;13.40;99.90;;;;;;5032826;28;20094;-70
2022/11/06 01:58:47;;;;;;;10.93;5.43;;;12.10;99.90;;;;;;5032808;28;20075;-69
2022/11/06 02:01:14;;;;;;;11.38;6.25;;;12.90;99.90;;;;;;5030110;28;20499;-69
2022/11/06 02:03:47;;;;;;;9.40;6.10;;;13.20;99.90;;;;;;5044774;28;20032;-69
2022/11/06 02:06:13;;;;;;;9.85;6.03;;;12.20;99.90;;;;;;5052939;28;20033;-69
2022/11/06 02:08:38;;;;;;;13.75;6.05;;;13.40;99.90;;;;;;5026897;28;20045;-70
2022/11/06 02:11:04;;;;;;;8.98;5.13;;;12.10;99.90;;;;;;5047603;28;20063;-69
2022/11/06 02:13:59;;;;;;;10.23;5.55;;;13.50;99.90;;;;;;5052424;28;20045;-69
2022/11/06 02:16:43;;;;;;;14.48;6.45;;;13.00;99.90;;;;;;4969502;28;20074;-69
2022/11/06 02:19:39;;;;;;;14.20;7.40;;;12.30;99.90;;;;;;5032743;28;20049;-69
2022/11/06 02:22:32;;;;;;;19.40;7.95;;;12.40;99.90;;;;;;4986206;28;20503;-69
2022/11/06 02:25:13;;;;;;;18.58;8.18;;;13.40;99.90;;;;;;5034642;28;20132;-69
2022/11/06 02:27:47;;;;;;;14.27;6.10;;;13.50;99.90;;;;;;5052399;28;20044;-69
2022/11/06 02:30:14;;;;;;;14.48;7.63;;;13.40;99.90;;;;;;5051626;28;20048;-69
2022/11/06 02:32:45;;;;;;;12.55;7.03;;;12.40;99.90;;;;;;5052174;28;20033;-69
2022/11/06 02:35:28;;;;;;;9.93;6.07;;;13.40;99.90;;;;;;5052227;28;20388;-69
2022/11/06 02:37:59;;;;;;;13.10;7.60;;;12.90;99.90;;;;;;5049814;28;20052;-69
2022/11/06 02:40:31;;;;;;;12.13;6.53;;;13.50;99.90;;;;;;5051807;28;20041;-69
2022/11/06 02:42:59;;;;;;;12.18;6.97;;;12.40;99.90;;;;;;5052263;28;20041;-69
2022/11/06 02:45:28;;;;;;;15.43;7.40;;;12.80;99.90;;;;;;5035234;28;20401;-69
2022/11/06 02:47:55;;;;;;;10.45;6.93;;;12.00;99.90;;;;;;5051348;28;20120;-69
2022/11/06 02:50:29;;;;;;;13.88;7.93;;;12.20;99.90;;;;;;5050280;28;20493;-69
2022/11/06 02:52:59;;;;;;;19.02;7.78;;;12.20;99.90;;;;;;5052050;28;20044;-70
2022/11/06 02:55:37;;;;;;;15.48;7.65;;;12.90;99.90;;;;;;5051623;28;20063;-69
2022/11/06 02:58:16;;;;;;;17.42;9.15;;;13.50;99.90;;;;;;5043993;28;20045;-70
2022/11/06 03:00:47;;;;;;;12.93;7.15;;;12.20;99.90;;;;;;5049523;28;20036;-70
2022/11/06 03:03:22;;;;;;;14.60;9.00;;;12.50;99.90;;;;;;5050197;28;20064;-70
2022/11/06 03:05:59;;;;;;;14.30;7.90;;;13.50;99.90;;;;;;5042757;28;20403;-70
2022/11/06 03:08:53;;;;;;;11.77;7.10;;;12.30;99.90;;;;;;5038749;28;20045;-69
2022/11/06 03:11:31;;;;;;;16.67;7.75;;;13.30;99.90;;;;;;5050666;28;20506;-69
2022/11/06 03:14:15;;;;;;;14.05;7.03;;;13.70;99.90;;;;;;5051566;28;20049;-70
2022/11/06 03:17:02;;;;;;;12.88;6.82;;;13.50;99.90;;;;;;5051417;28;20045;-70
2022/11/06 03:19:56;;;;;;;10.90;6.70;;;12.30;99.90;;;;;;5031286;28;20041;-69
2022/11/06 03:22:24;;;;;;;12.43;7.13;;;12.70;99.90;;;;;;5031386;28;20060;-69
2022/11/06 03:25:11;;;;;;;11.10;7.13;;;13.50;99.90;;;;;;5032519;28;20037;-70
2022/11/06 03:28:07;;;;;;;12.55;7.18;;;12.30;99.90;;;;;;5034504;28;20044;-69
2022/11/06 03:30:38;;;;;;;13.05;7.15;;;12.60;99.90;;;;;;5035511;28;20079;-69
2022/11/06 03:33:31;;;;;;;11.25;7.90;;;13.60;99.90;;;;;;5050960;28;20041;-69
2022/11/06 03:36:06;;;;;;;12.95;7.45;;;13.20;99.90;;;;;;5026588;28;20060;-70
2022/11/06 03:38:43;;;;;;;16.42;9.90;;;13.60;99.90;;;;;;5047048;28;20502;-70
2022/11/06 03:41:21;;;;;;;11.63;7.70;;;12.30;99.90;;;;;;5022886;28;20119;-70
2022/11/06 03:43:51;;;;;;;15.25;8.75;;;12.50;99.90;;;;;;5050619;28;20488;-69
2022/11/06 03:46:20;;;;;;;10.68;7.18;;;12.60;99.90;;;;;;5048124;28;20422;-69
2022/11/06 03:48:49;;;;;;;10.43;6.07;;;12.30;99.90;;;;;;5030925;28;20159;-69
2022/11/06 03:51:23;;;;;;;9.20;6.43;;;13.50;99.90;;;;;;5041252;28;20060;-69
2022/11/06 03:53:59;;;;;;;10.20;6.97;;;12.50;99.90;;;;;;5050786;28;20059;-69
2022/11/06 03:56:49;;;;;;;13.18;6.53;;;13.80;99.90;;;;;;5050191;28;20498;-69
2022/11/06 03:59:21;;;;;;;11.50;7.63;;;13.30;99.90;;;;;;5047473;28;20124;-69
2022/11/06 04:01:48;;;;;;;17.10;8.98;;;12.40;99.90;;;;;;5048477;28;20029;-70
2022/11/06 04:04:37;;;;;;;15.18;7.70;;;13.80;99.90;;;;;;5050725;28;20044;-70
2022/11/06 04:07:08;;;;;;;8.52;6.45;;;12.30;99.90;;;;;;5032651;28;20045;-70
2022/11/06 04:15:14;;;;;;;13.55;7.90;;;14.00;99.90;;;;;;5046048;28;20049;-69
2022/11/06 04:17:40;;;;;;;21.27;10.65;;;13.80;99.90;;;;;;5030750;28;20124;-70
2022/11/06 04:23:39;;;;;;;15.32;9.82;;;13.50;99.90;;;;;;5030364;28;20159;-69
2022/11/06 04:26:36;;;;;;;13.95;9.15;;;12.90;99.90;;;;;;5022248;28;20418;-70
2022/11/06 04:29:09;;;;;;;17.25;9.35;;;13.90;99.90;;;;;;5047061;28;20045;-69
2022/11/06 04:31:45;;;;;;;14.00;7.45;;;13.90;99.90;;;;;;5030520;28;20132;-69
2022/11/06 04:34:25;;;;;;;;;;;13.40;99.90;;;;;;5030739;28;20099;-69
2022/11/06 04:37:14;;;;;;;13.68;7.93;;;13.90;99.90;;;;;;5044911;28;20362;-69
2022/11/06 04:40:03;;;;;;;9.02;7.75;;;12.60;99.90;;;;;;5058637;28;20053;-69
2022/11/06 04:42:49;;;;;;;12.73;7.80;;;13.20;99.90;;;;;;5049636;28;20494;-69
2022/11/06 04:45:40;;;;;;;12.35;8.48;;;14.00;99.90;;;;;;5046767;28;20479;-69
2022/11/06 04:48:07;;;;;;;14.82;8.38;;;13.50;99.90;;;;;;5025476;28;20064;-69
2022/11/06 04:50:39;;;;;;;13.18;7.35;;;13.90;99.90;;;;;;5031599;28;20527;-69
2022/11/06 04:53:08;;;;;;;11.02;7.47;;;13.10;99.90;;;;;;5038562;28;20044;-69
2022/11/06 04:55:47;;;;;;;11.30;8.00;;;13.80;99.90;;;;;;5032139;28;20041;-69
2022/11/06 04:58:13;;;;;;;13.93;7.32;;;13.70;99.90;;;;;;5050120;28;20572;-69
2022/11/06 05:00:43;;;;;;;17.30;8.48;;;12.40;99.90;;;;;;5049983;28;20064;-70
2022/11/06 05:03:08;;;;;;;14.90;9.00;;;12.80;99.90;;;;;;5032743;28;20043;-70
2022/11/06 05:05:34;;;;;;;13.23;8.00;;;12.60;99.90;;;;;;5050032;28;20500;-70
2022/11/06 05:07:59;;;;;;;15.00;9.60;;;13.90;99.90;;;;;;5029326;28;20503;-69
2022/11/06 05:10:25;;;;;;;8.85;5.93;;;12.70;99.90;;;;;;5013376;28;20477;-69
2022/11/06 05:12:50;;;;;;;12.05;8.30;;;13.80;99.90;;;;;;5014935;28;20107;-69
2022/11/06 05:15:16;;;;;;;12.38;7.55;;;12.40;99.90;;;;;;5034377;28;20045;-69
2022/11/06 05:17:42;;;;;;;10.70;8.02;;;13.80;99.90;;;;;;5030051;28;20124;-70
2022/11/06 05:20:07;;;;;;;8.30;5.07;;;12.40;99.90;;;;;;5032565;28;20663;-69
2022/11/06 05:25:17;;;;;;;12.88;6.35;;;13.10;99.90;;;;;;5037187;28;20095;-69
2022/11/06 05:27:42;;;;;;;8.15;5.60;;;13.50;99.90;;;;;;5051306;28;20476;-69
2022/11/06 05:30:08;;;;;;;7.03;4.85;;;12.50;99.90;;;;;;5048987;28;20037;-69
2022/11/06 05:32:34;;;;;;;10.18;5.20;;;12.30;99.90;;;;;;5039653;28;20044;-69
2022/11/06 05:34:59;;;;;;;7.25;5.05;;;13.80;99.90;;;;;;5048759;28;20033;-69
2022/11/06 05:37:26;;;;;;;9.07;6.00;;;13.90;99.90;;;;;;5036689;28;20832;-69
2022/11/06 05:39:52;;;;;;;9.88;6.55;;;12.40;99.90;;;;;;5053169;28;20041;-70
2022/11/06 05:42:17;;;;;;;8.65;5.68;;;13.30;99.90;;;;;;5046875;28;20048;-70
2022/11/06 05:44:43;;;;;;;8.32;5.97;;;12.70;99.90;;;;;;5029310;28;20036;-69
2022/11/06 05:47:08;;;;;;;6.28;5.32;;;13.10;99.90;;;;;;5052841;28;20066;-69
2022/11/06 05:49:34;;;;;;;7.28;5.50;;;13.00;99.90;;;;;;5049204;28;20033;-69
2022/11/06 05:52:00;;;;;;;9.77;6.97;;;13.50;99.90;;;;;;5033068;28;20440;-69
2022/11/06 05:54:25;;;;;;;9.60;5.38;;;12.30;99.90;;;;;;5058162;28;20158;-69
2022/11/06 05:56:51;;;;;;;7.47;6.15;;;13.00;99.90;;;;;;5047905;28;20044;-69
2022/11/06 05:59:16;;;;;;;8.45;6.03;;;12.10;99.90;;;;;;5036139;28;20041;-69
2022/11/06 06:01:42;;;;;;;10.82;6.40;;;13.30;99.90;;;;;;5052313;28;20033;-68
2022/11/06 06:04:07;;;;;;;17.35;8.30;;;12.20;99.90;;;;;;5035542;28;20090;-69
2022/11/06 06:06:33;;;;;;;9.82;6.43;;;13.30;99.90;;;;;;5052726;28;20037;-70
2022/11/06 06:08:58;;;;;;;7.07;5.13;;;13.10;99.90;;;;;;5036265;28;20037;-69
2022/11/06 06:11:24;;;;;;;6.65;5.13;;;13.00;99.90;;;;;;5035793;28;20410;-69
2022/11/06 06:13:49;;;;;;;6.35;4.90;;;12.60;99.90;;;;;;5050586;28;20049;-69
2022/11/06 06:16:15;;;;;;;8.43;5.53;;;13.60;99.90;;;;;;5045986;28;20037;-69
2022/11/06 06:18:41;;;;;;;6.43;5.10;;;12.20;99.90;;;;;;5032706;28;20060;-69
2022/11/06 06:21:06;;;;;;;9.23;6.05;;;13.40;99.90;;;;;;5032533;28;20522;-70
2022/11/06 06:23:32;;;;;;;8.07;5.68;;;13.50;99.90;;;;;;5019048;28;20029;-69
2022/11/06 06:25:57;;;;;;;8.05;5.75;;;12.00;99.90;;;;;;5048312;28;20041;-69
2022/11/06 06:28:23;;;;;;;11.45;6.53;;;13.30;99.90;;;;;;5016077;28;20133;-70
2022/11/06 06:30:48;;;;;;;10.60;8.80;;;12.00;99.90;;;;;;5043452;28;20071;-70
2022/11/06 06:33:14;;;;;;;10.95;7.60;;;12.00;99.90;;;;;;5044338;28;20044;-69
2022/11/06 06:35:39;;;;;;;11.40;7.30;;;13.50;99.90;;;;;;5051597;28;20103;-69
2022/11/06 06:38:05;;;;;;;10.07;8.18;;;12.20;99.90;;;;;;5035119;28;20040;-70
2022/11/06 06:40:30;;;;;;;12.45;8.98;;;13.20;99.90;;;;;;5050129;28;20402;-70
2022/11/06 06:42:57;;;;;;;11.00;8.63;;;12.70;99.90;;;;;;5051405;28;20130;-70
2022/11/06 06:45:23;;;;;;;11.63;7.85;;;12.10;99.90;;;;;;5051138;28;20583;-70
2022/11/06 06:47:48;;;;;;;10.82;8.38;;;11.80;99.90;;;;;;5051663;28;20045;-70
2022/11/06 06:50:14;;;;;;;11.95;7.95;;;12.00;99.90;;;;;;5049199;28;20491;-70
2022/11/06 06:52:40;;;;;;;10.73;7.10;;;13.10;99.90;;;;;;5051073;28;20048;-69
2022/11/06 06:55:06;;;;;;;13.25;7.53;;;12.10;99.90;;;;;;5034917;28;20040;-69
2022/11/06 06:57:31;;;;;;;7.00;6.07;;;13.40;99.90;;;;;;5034956;28;20414;-70
2022/11/06 06:59:57;;;;;;;13.40;7.22;;;12.00;99.90;;;;;;5051258;28;20119;-70
2022/11/06 07:02:22;;;;;;;15.15;8.05;;;12.80;99.90;;;;;;5047784;28;20063;-70
2022/11/06 07:04:48;;;;;;;14.18;8.23;;;12.80;99.90;;;;;;5040270;28;20044;-70
2022/11/06 07:07:14;;;;;;;12.88;8.57;;;13.10;99.90;;;;;;5043365;28;20037;-70
2022/11/06 07:09:39;;;;;;;10.93;6.82;;;13.40;99.90;;;;;;5048246;28;20033;-69
2022/11/06 07:12:05;;;;;;;9.48;6.65;;;13.50;99.90;;;;;;5062739;28;20051;-70
2022/11/06 07:14:30;;;;;;;11.80;7.20;;;12.70;99.90;;;;;;5038203;28;20082;-70
2022/11/06 07:16:56;;;;;;;12.48;7.05;;;12.80;99.90;;;;;;5050336;28;20075;-69
2022/11/06 07:19:21;;;;;;;17.30;8.02;;;13.00;99.90;;;;;;5031888;28;20387;-69
2022/11/06 07:21:51;;;;;;;11.88;7.53;;;13.50;99.90;;;;;;5050276;28;20490;-69
2022/11/06 07:24:17;;;;;;;9.32;6.43;;;13.40;99.90;;;;;;5047614;28;20055;-69
2022/11/06 07:26:43;;;;;;;13.82;7.28;;;12.60;99.90;;;;;;5047980;28;20479;-69
2022/11/06 07:29:09;;;;;;;12.15;5.93;;;12.20;99.90;;;;;;5019671;28;20041;-70
2022/11/06 07:31:34;;;;;;;11.40;6.65;;;12.20;99.90;;;;;;5050417;28;20029;-70
2022/11/06 07:34:00;;;;;;;13.60;8.00;;;13.40;99.90;;;;;;5049210;28;20059;-70
2022/11/06 07:36:25;;;;;;;10.48;5.88;;;12.10;99.90;;;;;;5042355;28;20046;-69
2022/11/06 07:38:51;;;;;;;12.77;7.22;;;12.90;99.90;;;;;;5025225;28;20033;-70
2022/11/06 07:41:16;;;;;;;23.13;9.60;;;11.90;99.90;;;;;;5032594;28;20048;-70
2022/11/06 07:43:42;;;;;;;18.60;7.55;;;13.20;99.90;;;;;;5046958;28;20057;-70
2022/11/06 07:46:10;;;;;;;12.20;6.00;;;11.90;99.90;;;;;;5041958;28;20059;-70
2022/11/06 07:48:36;;;;;;;11.50;6.00;;;13.40;99.90;;;;;;5031732;28;20406;-70
2022/11/06 07:51:04;;;;;;;13.38;6.57;;;12.70;99.90;;;;;;5043972;28;20037;-70
2022/11/06 07:53:30;;;;;;;8.73;5.07;;;11.90;99.90;;;;;;5044159;28;20119;-70
2022/11/06 07:55:56;;;;;;;15.75;5.65;;;13.20;99.90;;;;;;5031934;28;20546;-70
2022/11/06 07:58:23;;;;;;;13.88;6.22;;;12.60;99.90;;;;;;5043228;28;20065;-70
2022/11/06 08:00:50;;;;;;;16.70;7.22;;;13.40;99.90;;;;;;5029353;28;20068;-70
2022/11/06 08:03:16;;;;;;;12.82;6.30;;;12.50;99.90;;;;;;5046114;28;20120;-66
2022/11/06 08:05:42;;;;;;;8.25;4.95;;;12.90;99.90;;;;;;5046431;28;20223;-69
2022/11/06 08:08:08;;;;;;;13.90;5.93;;;11.90;99.90;;;;;;5050363;28;20383;-69
2022/11/06 08:10:36;;;;;;;12.25;5.47;;;12.20;99.90;;;;;;5043936;28;20049;-70
2022/11/06 08:13:02;;;;;;;8.98;4.95;;;12.20;99.90;;;;;;5048200;28;20449;-70
2022/11/06 08:15:27;;;;;;;12.32;5.70;;;13.30;99.90;;;;;;5049911;28;20090;-70
2022/11/06 08:17:53;;;;;;;14.45;6.28;;;13.30;99.90;;;;;;5049808;28;20045;-70
2022/11/06 08:20:19;;;;;;;12.75;5.32;;;12.10;99.90;;;;;;5047033;28;20064;-71
2022/11/06 08:22:44;;;;;;;15.38;6.13;;;11.70;99.90;;;;;;5045191;28;20072;-70
2022/11/06 08:25:10;;;;;;;7.35;4.75;;;12.70;99.90;;;;;;5027522;28;20376;-70
2022/11/06 08:27:36;;;;;;;10.60;4.43;;;13.50;99.90;;;;;;5040127;28;20033;-70
2022/11/06 08:30:02;;;;;;;10.30;4.88;;;12.00;99.90;;;;;;5049144;28;20037;-70
2022/11/06 08:32:28;;;;;;;12.75;4.78;;;13.30;99.90;;;;;;5050088;28;20072;-70
2022/11/06 08:34:53;;;;;;;8.52;3.95;;;13.00;99.90;;;;;;5047375;28;20060;-70
2022/11/06 08:37:19;;;;;;;13.57;5.22;;;13.40;99.90;;;;;;5041929;28;20037;-70
2022/11/06 08:39:45;;;;;;;10.15;4.50;;;13.60;99.90;;;;;;5025301;28;20128;-70
2022/11/06 08:42:11;;;;;;;7.47;4.45;;;13.40;99.90;;;;;;5043179;28;20033;-70
2022/11/06 08:44:36;;;;;;;9.77;4.55;;;11.70;99.90;;;;;;5039369;28;20129;-70
2022/11/06 08:47:02;;;;;;;15.10;5.63;;;12.80;99.90;;;;;;5048301;28;20114;-70
2022/11/06 08:49:27;;;;;;;13.95;5.35;;;13.50;99.90;;;;;;5029299;28;20034;-70
2022/11/06 08:51:53;;;;;;;9.77;4.22;;;11.70;99.90;;;;;;5046407;28;20037;-70
2022/11/06 08:54:19;;;;;;;12.82;4.18;;;12.10;99.90;;;;;;5042432;28;20037;-70
2022/11/06 08:56:44;;;;;;;9.35;4.60;;;11.90;99.90;;;;;;5050255;28;20045;-70
2022/11/06 08:59:10;;;;;;;12.63;4.40;;;12.50;99.90;;;;;;5019664;28;20406;-71
2022/11/06 09:01:35;;;;;;;10.63;4.75;;;11.80;99.90;;;;;;5045542;28;20514;-68
2022/11/06 09:04:01;;;;;;;8.10;3.72;;;11.70;99.90;;;;;;5051714;28;20494;-67
2022/11/06 09:06:26;;;;;;;5.03;3.55;;;11.60;99.90;;;;;;5049394;28;20124;-68
2022/11/06 09:08:52;;;;;;;5.45;3.33;;;13.40;99.90;;;;;;5051921;28;20091;-68
2022/11/06 09:11:18;;;;;;;8.55;3.70;;;11.70;99.90;;;;;;5047956;28;20165;-68
2022/11/06 09:13:43;;;;;;;8.13;3.78;;;12.40;99.90;;;;;;5044793;28;20041;-68
2022/11/06 09:16:09;;;;;;;8.93;4.68;;;13.50;99.90;;;;;;5048948;28;20083;-69
2022/11/06 09:18:34;;;;;;;8.98;4.13;;;11.70;99.90;;;;;;5019209;28;20398;-69
2022/11/06 09:21:00;;;;;;;11.93;4.85;;;11.60;99.90;;;;;;5017857;28;20121;-68
2022/11/06 09:23:25;;;;;;;6.97;3.70;;;13.10;99.90;;;;;;5046760;28;20051;-68
2022/11/06 09:25:51;;;;;;;6.57;3.40;;;13.10;99.90;;;;;;5063539;28;20037;-69
2022/11/06 09:28:16;;;;;;;7.40;3.40;;;12.00;99.90;;;;;;5051623;28;20139;-69
2022/11/06 09:30:42;;;;;;;5.15;2.80;;;13.40;99.90;;;;;;5051271;28;20135;-69
2022/11/06 09:33:08;;;;;;;8.07;3.45;;;11.70;99.90;;;;;;5036266;28;20049;-69
2022/11/06 09:35:34;;;;;;;8.77;4.15;;;13.30;99.90;;;;;;5034471;28;20065;-69
2022/11/06 09:38:01;;;;;;;9.88;4.30;;;12.90;99.90;;;;;;5029377;28;20030;-69
2022/11/06 09:40:38;;;;;;;14.43;4.40;;;13.00;99.90;;;;;;5052069;28;20044;-68
2022/11/06 09:43:07;;;;;;;8.57;4.03;;;13.00;99.90;;;;;;5049336;28;20033;-70
2022/11/06 09:45:36;;;;;;;10.88;4.07;;;13.30;99.90;;;;;;5061715;28;20041;-69
2022/11/06 09:48:08;;;;;;;4.20;2.90;;;11.60;99.90;;;;;;5050566;28;20076;-69
2022/11/06 09:50:39;;;;;;;5.55;2.85;;;13.40;99.90;;;;;;5029175;28;20461;-70
2022/11/06 09:53:31;;;;;;;7.18;3.00;;;13.20;99.90;;;;;;5048190;28;20319;-69
2022/11/06 09:56:00;;;;;;;6.03;3.47;;;11.80;99.90;;;;;;5038821;28;20179;-69
2022/11/06 09:58:32;;;;;;;11.02;4.50;;;11.90;99.90;;;;;;5049188;28;20052;-69
2022/11/06 10:01:02;;;;;;;10.57;3.83;;;13.40;99.90;;;;;;5047132;28;20041;-69
2022/11/06 10:03:41;;;;;;;9.55;3.40;;;13.20;99.90;;;;;;5049973;28;20036;-70
2022/11/06 10:06:07;;;;;;;5.45;3.00;;;12.60;99.90;;;;;;5038030;28;20091;-69
2022/11/06 10:08:33;;;;;;;11.27;3.58;;;11.60;99.90;;;;;;5032230;28;20041;-69
2022/11/06 10:11:12;;;;;;;7.63;3.30;;;11.70;99.90;;;;;;5048626;28;20541;-69
2022/11/06 10:14:02;;;;;;;7.13;3.53;;;13.50;99.90;;;;;;5051797;28;20059;-69
2022/11/06 10:17:00;;;;;;;11.20;3.58;;;11.70;99.90;;;;;;5051957;28;20083;-69
2022/11/06 10:19:40;;;;;;;11.55;3.83;;;13.10;99.90;;;;;;5051152;28;20037;-70
2022/11/06 10:22:54;;;;;;;7.20;3.40;;;11.70;99.90;;;;;;5050884;28;20118;-70
2022/11/06 10:25:49;;;;;;;6.40;3.13;;;13.10;99.90;;;;;;4992570;28;20168;-70
2022/11/06 10:28:48;;;;;;;6.93;3.55;;;12.10;99.90;;;;;;4992518;28;20080;-70
2022/11/06 10:31:13;;;;;;;7.60;2.65;;;12.90;99.90;;;;;;5054125;28;20076;-69
2022/11/06 10:33:57;;;;;;;11.95;3.33;;;13.50;99.90;;;;;;5049673;28;20778;-69
2022/11/06 10:36:47;;;;;;;8.02;3.55;;;13.00;99.90;;;;;;5026587;28;20037;-68
2022/11/06 10:39:19;;;;;;;8.68;3.53;;;13.00;99.90;;;;;;5022496;28;20053;-70
2022/11/06 10:41:51;;;;;;;14.27;3.92;;;13.10;99.90;;;;;;5043913;28;20041;-69
2022/11/06 10:44:30;;;;;;;9.40;3.88;;;11.80;99.90;;;;;;5049357;28;20047;-69
2022/11/06 10:47:19;;;;;;;5.38;3.08;;;13.50;99.90;;;;;;5035484;28;20041;-69
2022/11/06 10:49:52;;;;;;;8.85;2.90;;;12.60;99.90;;;;;;5040808;28;20048;-69
2022/11/06 10:52:36;;;;;;;7.78;2.97;;;12.20;99.90;;;;;;5042066;28;20445;-69
2022/11/06 10:55:30;;;;;;;15.30;4.80;;;12.30;99.90;;;;;;5047573;28;20041;-69
2022/11/06 10:58:21;;;;;;;13.98;4.22;;;13.60;99.90;;;;;;5050657;28;20045;-70
2022/11/06 11:00:49;;;;;;;10.60;4.82;;;12.00;99.90;;;;;;5043194;28;20553;-69
2022/11/06 11:03:30;;;;;;;6.38;3.55;;;13.20;99.90;;;;;;5049873;28;20109;-69
2022/11/06 11:05:56;;;;;;;10.32;4.28;;;12.90;99.90;;;;;;5049517;28;20041;-69
2022/11/06 11:08:43;;;;;;;6.72;3.72;;;13.90;99.90;;;;;;5049252;28;20094;-69
2022/11/06 11:11:26;;;;;;;5.45;3.03;;;14.00;99.90;;;;;;5050620;28;20049;-69
2022/11/06 11:13:55;;;;;;;8.18;3.50;;;12.10;99.90;;;;;;5049399;28;20068;-68
2022/11/06 11:16:31;;;;;;;9.57;4.13;;;12.90;99.90;;;;;;5049961;28;20041;-69
2022/11/06 11:19:13;;;;;;;5.18;3.05;;;12.50;99.90;;;;;;5046940;28;20041;-69
2022/11/06 11:21:53;;;;;;;5.97;3.10;;;13.50;99.90;;;;;;5024170;28;20033;-69
2022/11/06 11:24:20;;;;;;;12.32;4.13;;;14.00;99.90;;;;;;5040698;28;20164;-69
2022/11/06 11:26:52;;;;;;;7.30;3.05;;;12.60;99.90;;;;;;5022140;28;20120;-69
2022/11/06 11:29:52;;;;;;;7.35;3.00;;;12.60;99.90;;;;;;5038038;28;20410;-69
2022/11/06 11:32:20;;;;;;;9.32;3.38;;;13.50;99.90;;;;;;4992680;28;20049;-69
2022/11/06 11:34:50;;;;;;;7.55;3.58;;;12.50;99.90;;;;;;5042787;28;20056;-69
2022/11/06 11:37:29;;;;;;;7.75;3.00;;;12.50;99.90;;;;;;5041442;28;20048;-69
2022/11/06 11:40:15;;;;;;;10.13;3.22;;;12.90;99.90;;;;;;5028028;28;20044;-67
2022/11/06 11:42:41;;;;;;;7.28;3.28;;;13.70;99.90;;;;;;5043601;28;20406;-69
2022/11/06 11:45:14;;;;;;;7.63;2.90;;;14.00;99.90;;;;;;5034387;28;20041;-68
2022/11/06 11:47:42;;;;;;;4.18;2.40;;;12.80;99.90;;;;;;5044428;28;20037;-68
2022/11/06 11:50:32;;;;;;;6.03;2.63;;;14.60;99.90;;;;;;5050169;28;20033;-69
2022/11/06 11:53:09;;;;;;;7.82;2.83;;;13.30;99.90;;;;;;5049004;28;20025;-68
2022/11/06 11:55:38;;;;;;;6.20;2.78;;;14.70;99.90;;;;;;5050697;28;20490;-68
2022/11/06 11:58:18;;;;;;;7.18;2.40;;;14.70;99.90;;;;;;5049999;28;20510;-68
2022/11/06 12:00:52;;;;;;;8.98;3.28;;;13.00;99.90;;;;;;5031730;28;20140;-68
2022/11/06 12:03:19;;;;;;;15.88;3.33;;;14.20;99.90;;;;;;5048178;28;20052;-68
2022/11/06 12:05:45;;;;;;;16.23;2.35;;;14.70;99.90;;;;;;5050036;28;20041;-68
2022/11/06 12:08:22;;;;;;;9.63;2.90;;;14.60;99.90;;;;;;5046244;28;20053;-68
2022/11/06 12:10:49;;;;;;;7.90;2.47;;;14.50;99.90;;;;;;5046686;28;20060;-69
2022/11/06 12:13:23;;;;;;;8.13;2.50;;;14.90;99.90;;;;;;5029472;28;20047;-68
2022/11/06 12:16:09;;;;;;;7.15;2.30;;;13.30;99.90;;;;;;5052372;28;20064;-69
2022/11/06 12:18:40;;;;;;;3.70;2.25;;;14.90;99.90;;;;;;5019148;28;20042;-69
2022/11/06 12:21:10;;;;;;;8.30;2.70;;;14.70;99.90;;;;;;5030011;28;20037;-69
2022/11/06 12:23:55;;;;;;;9.45;2.70;;;13.80;99.90;;;;;;5039995;28;20037;-69
2022/11/06 12:26:44;;;;;;;3.90;1.88;;;14.70;99.90;;;;;;5048982;28;20064;-69
2022/11/06 12:29:17;;;;;;;9.45;2.42;;;13.70;99.90;;;;;;5027482;28;20378;-68
2022/11/06 12:32:22;;;;;;;7.45;2.88;;;12.60;99.90;;;;;;5031337;28;20094;-68
2022/11/06 12:35:06;;;;;;;8.02;2.97;;;14.50;99.90;;;;;;5057302;28;20052;-68
2022/11/06 12:38:02;;;;;;;7.00;2.35;;;14.60;99.90;;;;;;5032909;28;20044;-67
2022/11/06 12:40:30;;;;;;;5.93;2.53;;;14.50;99.90;;;;;;5049500;28;20064;-69
2022/11/06 12:43:16;;;;;;;8.40;2.67;;;12.60;99.90;;;;;;5051297;28;20040;-68
2022/11/06 12:45:49;;;;;;;6.43;2.38;;;12.40;99.90;;;;;;5052183;28;20029;-68
2022/11/06 12:48:20;;;;;;;8.82;2.40;;;12.40;99.90;;;;;;5052751;28;20116;-68
2022/11/06 12:51:04;;;;;;;7.55;2.47;;;14.20;99.90;;;;;;5051888;28;20094;-68
2022/11/06 12:53:54;;;;;;;7.18;2.85;;;13.00;99.90;;;;;;5041300;28;20048;-68
2022/11/06 12:56:38;;;;;;;9.25;2.63;;;14.40;99.90;;;;;;5041918;28;20067;-68
2022/11/06 12:59:14;;;;;;;7.90;2.30;;;14.80;99.90;;;;;;5034278;28;20064;-70
2022/11/06 13:02:06;;;;;;;7.07;2.60;;;14.00;99.90;;;;;;5029415;28;20045;-69
2022/11/06 13:04:49;;;;;;;4.55;2.25;;;13.80;99.90;;;;;;5050304;28;20483;-69
2022/11/06 13:07:33;;;;;;;6.53;2.35;;;13.90;99.90;;;;;;5051702;28;20033;-69
2022/11/06 13:10:17;;;;;;;4.07;1.80;;;12.50;99.90;;;;;;5045386;28;20494;-68
2022/11/06 13:12:56;;;;;;;6.03;2.20;;;12.40;99.90;;;;;;5051778;28;20414;-69
2022/11/06 13:15:39;;;;;;;7.63;2.20;;;13.70;99.90;;;;;;5031876;28;20041;-69
2022/11/06 13:18:49;;;;;;;3.97;1.83;;;12.50;99.90;;;;;;5034952;28;20084;-69